To NAV CANADA Home Page Login to a new session Search on AWWS site Feedback and Comments Disclaimer Vers la page française équivalente Tips FAQ What's new on the site To the Forecasts and Observations / NOTAM section To "File a Flight Plan" website Publications and other links Update of the User's profile FIC Telephone Numbers My Weather Data Folder Route Weather Data Regional Weather Data Local Weather Data To the Forecasts and Observations / NOTAM section
Request Generated 07/03/2015 at 21:57:51 UTC . Weather information available at that time is displayed.

METAR/TAF

REPULSE BAY/NU    

METAR CYUT 032100Z 34008KT 290V360 45SM FEW008 FEW015 BKN040 07/03
A2984 RMK SF1ST1SC4 SF TR 8.0/2.6/0.4/0.0 SNW CVR/NIL LAST STFD
OBS/NXT 061300Z SLP106=
METAR CYUT 032000Z 33014KT 25SM FEW008 SCT015 BKN030 07/04 A2982 RMK
SF1ST2SC4 SLP101=
SPECI CYUT 031941Z 33010G17KT 25SM FEW008 SCT015 BKN030 07/04 A2983
RMK SF1ST2SC4 SLP102=
METAR CYUT 031900Z 33011KT 20SM -DZ FEW009 OVC017 07/05 A2982 RMK
SF1ST8 SF TR BLN ESTD SLP099=

TAF CYUT 031843Z 0319/0322 29008KT P6SM SCT015 BKN030 TEMPO 0319/0322
P6SM -SHRA BKN015
RMK NXT FCST WILL BE ISSUED AT 041545Z=
Your time UTC time
Weather data provided by Environment Canada and NAV CANADA